createdAt,value
2022-08-14T00:02:03.398Z,100028.59
2022-08-14T00:08:51.865Z,100010.69
2022-08-14T00:15:44.065Z,100003.25
2022-08-14T00:22:56.061Z,100005.47
2022-08-14T00:29:42.977Z,100002.66
2022-08-14T00:36:36.597Z,99998.13
2022-08-14T00:43:33.608Z,99979.66
2022-08-14T00:50:26.084Z,99987.41
2022-08-14T00:57:13.671Z,99990.53
2022-08-14T01:04:05.727Z,99989.59
2022-08-14T01:10:54.742Z,99983.31
2022-08-14T01:17:53.312Z,99973.75
2022-08-14T01:24:41.576Z,99957.69
2022-08-14T01:31:36.888Z,99972.25
2022-08-14T01:38:23.653Z,99990.44
2022-08-14T01:45:17.876Z,99973.38
2022-08-14T01:52:33.646Z,99942.09
2022-08-14T01:59:26.793Z,99825.09
2022-08-14T02:06:32.554Z,99871.84
2022-08-14T02:13:20.948Z,99894.47
2022-08-14T02:20:10.713Z,99870.94
2022-08-14T02:28:25.302Z,99891.13
2022-08-14T02:34:14.721Z,99887.97
2022-08-14T02:41:11.544Z,99896.06
2022-08-14T03:01:50.415Z,99874.75
2022-08-14T03:08:46.145Z,99874.97
2022-08-14T03:15:32.970Z,99867.34
2022-08-14T03:22:22.484Z,99882.31
2022-08-14T03:29:15.502Z,99877.13
2022-08-14T03:37:15.449Z,99884.47
2022-08-14T03:43:11.669Z,99871.69
2022-08-14T03:49:57.226Z,99889.00
2022-08-14T03:56:45.247Z,99867.06
2022-08-14T04:03:38.340Z,99865.41
2022-08-14T04:10:31.607Z,99879.03
2022-08-14T04:17:17.898Z,99859.94
2022-08-14T04:24:07.179Z,99800.25
2022-08-14T04:30:52.712Z,99858.31
2022-08-14T04:37:57.414Z,99861.50
2022-08-14T04:44:48.839Z,99859.94
2022-08-14T04:51:46.252Z,99822.84
2022-08-14T04:58:40.200Z,99855.44
2022-08-14T05:05:28.868Z,99850.03
2022-08-14T05:13:13.652Z,99859.84
2022-08-14T05:19:29.001Z,99853.88
2022-08-14T05:26:18.353Z,99854.22
2022-08-14T05:33:04.071Z,99859.34
2022-08-14T05:39:49.833Z,99850.72
2022-08-14T05:46:39.105Z,99842.59
2022-08-14T05:53:24.712Z,99843.16
2022-08-14T06:00:28.360Z,99846.41
2022-08-14T06:07:18.349Z,99843.69
2022-08-14T06:14:12.377Z,99865.41
2022-08-14T06:21:13.013Z,99834.78
2022-08-14T06:28:03.869Z,99836.31
2022-08-14T06:35:04.755Z,99835.16
2022-08-14T06:41:57.912Z,99807.53
2022-08-14T06:48:47.838Z,99804.16
2022-08-14T06:55:34.461Z,99797.84
2022-08-14T07:02:35.986Z,99796.25
2022-08-14T07:09:24.348Z,99777.09
2022-08-14T07:16:13.128Z,99734.97
2022-08-14T07:23:07.302Z,99771.00
2022-08-14T07:29:56.982Z,99774.78
2022-08-14T07:36:57.957Z,99776.94
2022-08-14T07:43:47.646Z,99769.03
2022-08-14T07:50:45.397Z,99778.03
2022-08-14T07:57:30.997Z,99787.75
2022-08-14T08:04:24.011Z,99788.06
2022-08-14T08:11:15.201Z,99791.56
2022-08-14T08:18:01.422Z,99781.88
2022-08-14T08:24:50.566Z,99782.72
2022-08-14T08:31:51.940Z,99769.09
2022-08-14T08:39:18.837Z,99744.53
2022-08-14T08:45:44.021Z,99740.56
2022-08-14T08:52:32.485Z,99694.88
2022-08-14T08:59:31.417Z,99759.06
2022-08-14T09:06:53.936Z,99753.09
2022-08-14T09:13:30.710Z,99725.00
2022-08-14T09:20:26.025Z,99737.81
2022-08-14T09:27:16.563Z,99730.78
2022-08-14T09:34:27.389Z,99718.72
2022-08-14T09:42:21.772Z,99702.19
2022-08-14T09:48:40.532Z,99660.69
2022-08-14T09:55:41.289Z,99692.41
2022-08-14T10:02:30.217Z,99683.91
2022-08-14T10:09:16.904Z,99698.94
2022-08-14T10:16:06.004Z,99681.44
2022-08-14T10:23:18.607Z,99671.34
2022-08-14T10:30:05.277Z,99676.19
2022-08-14T10:37:14.101Z,99669.91
2022-08-14T10:44:21.604Z,99646.38
2022-08-14T10:51:08.609Z,99654.81
2022-08-14T10:57:59.916Z,99633.56
2022-08-14T11:04:48.001Z,99618.09
2022-08-14T11:11:37.086Z,99605.66
2022-08-14T11:18:32.103Z,99594.81
2022-08-14T11:25:24.057Z,99567.53
2022-08-14T11:32:11.574Z,99533.41
2022-08-14T11:38:59.958Z,99552.94
2022-08-14T11:45:50.560Z,99547.06
2022-08-14T11:52:40.330Z,99537.63
2022-08-14T11:59:33.590Z,99531.56
2022-08-14T12:06:28.495Z,99525.53
2022-08-14T12:13:22.329Z,99529.00
2022-08-14T12:20:12.568Z,99527.41
2022-08-14T12:27:01.048Z,99521.22
2022-08-14T12:33:59.880Z,99512.03
2022-08-14T12:40:56.112Z,99492.16
2022-08-14T12:47:42.468Z,99478.34
2022-08-14T12:54:32.146Z,99468.38
2022-08-14T13:01:26.220Z,99449.09
2022-08-14T13:08:33.531Z,99449.84
2022-08-14T13:15:19.687Z,99420.22
2022-08-14T13:22:10.065Z,99419.84
2022-08-14T13:29:06.610Z,99373.38
2022-08-14T13:35:56.422Z,99420.66
2022-08-14T13:42:48.411Z,99411.22
2022-08-14T13:49:57.832Z,99393.47
2022-08-14T13:56:45.301Z,99383.44
2022-08-14T14:03:39.579Z,99380.81
2022-08-14T14:10:28.287Z,99373.88
2022-08-14T14:17:16.201Z,99291.47
2022-08-14T14:24:05.553Z,99350.16
2022-08-14T14:30:53.009Z,99345.22
2022-08-14T14:37:41.868Z,99351.06
2022-08-14T14:44:40.625Z,99336.44
2022-08-14T14:51:26.221Z,99342.78
2022-08-14T14:58:15.583Z,99335.50
2022-08-14T15:05:10.832Z,99331.06
2022-08-14T15:11:59.487Z,99319.00
2022-08-14T15:18:49.201Z,99312.84
2022-08-14T15:25:37.725Z,99293.06
2022-08-14T15:32:24.038Z,99237.69
2022-08-14T15:39:10.037Z,99309.03
2022-08-14T15:45:59.333Z,99295.81
2022-08-14T15:52:46.721Z,99315.06
2022-08-14T15:59:53.929Z,99303.25
2022-08-14T16:06:42.194Z,99286.38
2022-08-14T16:13:39.713Z,99302.00
2022-08-14T16:20:41.895Z,99292.41
2022-08-14T16:27:40.887Z,99289.84
2022-08-14T16:34:46.033Z,99291.44
2022-08-14T16:41:34.883Z,99283.38
2022-08-14T16:48:57.201Z,99270.84
2022-08-14T16:55:30.284Z,99271.88
2022-08-14T17:02:18.880Z,99269.56
2022-08-14T17:09:08.581Z,99245.31
2022-08-14T17:16:10.559Z,99260.94
2022-08-14T17:23:11.322Z,99237.66
2022-08-14T17:29:59.508Z,99223.25
2022-08-14T17:36:53.946Z,99259.03
2022-08-14T17:43:42.068Z,99271.44
2022-08-14T17:51:00.405Z,99260.91
2022-08-14T17:57:46.912Z,99148.22
2022-08-14T18:04:38.629Z,99256.09
2022-08-14T18:11:45.581Z,99253.09
2022-08-14T18:18:33.160Z,99266.41
2022-08-14T18:25:22.747Z,99274.13
2022-08-14T18:32:55.525Z,99265.94
2022-08-14T18:40:02.399Z,99280.66
2022-08-14T18:47:32.622Z,99232.19
2022-08-14T18:54:40.161Z,99181.53
2022-08-14T19:01:34.098Z,99286.75
2022-08-14T19:08:30.681Z,99248.31
2022-08-14T19:15:25.731Z,99285.44
2022-08-14T19:22:29.939Z,99288.72
2022-08-14T19:29:37.640Z,99285.56
2022-08-14T19:36:29.057Z,99278.81
2022-08-14T19:43:55.113Z,99287.69
2022-08-14T19:50:40.556Z,99277.34
2022-08-14T19:57:29.526Z,99239.44
2022-08-14T20:04:47.761Z,99291.78
2022-08-14T20:12:00.120Z,99275.19
2022-08-14T20:18:49.963Z,99299.78
2022-08-14T20:25:45.409Z,99296.13
2022-08-14T20:32:51.849Z,99282.44
2022-08-14T20:39:45.054Z,99292.34
2022-08-14T20:46:42.411Z,99298.25
2022-08-14T20:53:35.744Z,99317.00
2022-08-14T21:00:52.575Z,99320.69
2022-08-14T21:07:44.287Z,99315.09
2022-08-14T21:14:36.092Z,99325.69
2022-08-14T21:21:41.332Z,99170.81
2022-08-14T21:28:35.798Z,99284.56
2022-08-14T21:35:23.276Z,99312.47
2022-08-14T21:42:10.904Z,99272.75
2022-08-14T21:48:59.740Z,99312.00
2022-08-14T21:55:46.623Z,99306.31
2022-08-14T22:02:33.606Z,99300.47
2022-08-14T22:09:29.415Z,99304.25
2022-08-14T22:17:03.474Z,99317.72
2022-08-14T22:23:30.064Z,99329.53
2022-08-14T22:30:20.307Z,99325.19
2022-08-14T22:37:06.296Z,99275.88
2022-08-14T22:43:52.327Z,99328.41
2022-08-14T22:50:48.995Z,99318.16
2022-08-14T22:57:42.106Z,99323.69
2022-08-14T23:04:35.667Z,99323.59
2022-08-14T23:11:30.703Z,99323.09
2022-08-14T23:18:17.123Z,99312.91
2022-08-14T23:25:09.962Z,99312.69
2022-08-14T23:31:59.304Z,99310.19
2022-08-14T23:38:45.172Z,99321.44
2022-08-14T23:45:36.502Z,99314.03
2022-08-14T23:52:56.133Z,99269.13
2022-08-14T23:59:31.702Z,99311.94
